Time;durP1;ratioP1;P1;durP2;ratioP2;P2;SDS_P1;SDS_P2;PMS_P1;PMS_P2;Temp;Humidity;BMP_temperature;BMP_pressure;BME280_temperature;BME280_humidity;BME280_pressure;Samples;Min_cycle;Max_cycle;Signal;HPM_P1;HPM_P2
2023/01/04 00:00:13;;;;;;;27.85;14.48;;;;;;;;;;4961395;28;20129;-70
2023/01/04 00:02:59;;;;;;;25.83;16.05;;;;;;;;;;4952450;28;20932;-69
2023/01/04 00:05:25;;;;;;;32.03;16.55;;;;;;;;;;4956696;28;20055;-72
2023/01/04 00:07:51;;;;;;;31.08;15.70;;;;;;;;;;4959414;28;20058;-71
2023/01/04 00:10:17;;;;;;;25.52;15.48;;;;;;;;;;4956738;28;20059;-70
2023/01/04 00:12:42;;;;;;;29.30;15.80;;;;;;;;;;4949188;28;20055;-70
2023/01/04 00:15:09;;;;;;;28.98;16.00;;;;;;;;;;4956590;28;20106;-69
2023/01/04 00:17:35;;;;;;;27.15;16.02;;;;;;;;;;4951135;28;20424;-70
2023/01/04 00:20:01;;;;;;;30.50;15.32;;;;;;;;;;4955605;28;20047;-71
2023/01/04 00:22:26;;;;;;;35.75;17.02;;;;;;;;;;4955604;28;20384;-69
2023/01/04 00:24:52;;;;;;;33.53;16.13;;;;;;;;;;4954263;28;20051;-71
2023/01/04 00:27:18;;;;;;;33.95;16.55;;;;;;;;;;4953709;28;20042;-70
2023/01/04 00:29:44;;;;;;;29.88;16.27;;;;;;;;;;4953694;28;20473;-71
2023/01/04 00:32:10;;;;;;;29.60;15.05;;;;;;;;;;4954133;28;20043;-69
2023/01/04 00:34:36;;;;;;;27.48;15.02;;;;;;;;;;4957454;28;20069;-69
2023/01/04 00:37:02;;;;;;;29.23;15.63;;;;;;;;;;4951816;28;20054;-70
2023/01/04 00:39:29;;;;;;;30.38;15.80;;;;;;;;;;4954059;28;20050;-71
2023/01/04 00:42:03;;;;;;;29.63;16.17;;;;;;;;;;4952312;28;20064;-70
2023/01/04 00:44:34;;;;;;;27.55;15.75;;;;;;;;;;4956541;28;20042;-70
2023/01/04 00:47:02;;;;;;;36.53;16.33;;;;;;;;;;4956821;28;20532;-70
2023/01/04 00:49:29;;;;;;;26.50;15.32;;;;;;;;;;4954826;28;20054;-74
2023/01/04 00:51:55;;;;;;;29.48;16.02;;;;;;;;;;4952312;28;20043;-70
2023/01/04 00:54:21;;;;;;;31.75;15.63;;;;;;;;;;4958883;28;20442;-71
2023/01/04 00:56:49;;;;;;;29.38;16.08;;;;;;;;;;4956241;28;20055;-70
2023/01/04 00:59:17;;;;;;;30.05;15.82;;;;;;;;;;4959222;28;20098;-70
2023/01/04 01:01:44;;;;;;;34.38;16.92;;;;;;;;;;4951565;28;20051;-69
2023/01/04 01:04:16;;;;;;;33.20;16.17;;;;;;;;;;4950798;28;20089;-69
2023/01/04 01:06:43;;;;;;;30.42;16.10;;;;;;;;;;4955449;28;20050;-71
2023/01/04 01:09:08;;;;;;;29.08;16.58;;;;;;;;;;4958621;28;20058;-70
2023/01/04 01:11:36;;;;;;;32.05;16.48;;;;;;;;;;4954344;28;20591;-70
2023/01/04 01:14:02;;;;;;;29.70;16.17;;;;;;;;;;4956531;28;20051;-70
2023/01/04 01:16:28;;;;;;;25.13;16.85;;;;;;;;;;4952639;28;20553;-71
2023/01/04 01:18:54;;;;;;;32.47;17.65;;;;;;;;;;4954675;28;20063;-72
2023/01/04 01:21:23;;;;;;;35.50;17.52;;;;;;;;;;4955123;28;20054;-70
2023/01/04 01:23:49;;;;;;;35.65;16.77;;;;;;;;;;4949709;28;21023;-68
2023/01/04 01:26:19;;;;;;;26.10;15.93;;;;;;;;;;4954136;28;20042;-70
2023/01/04 01:28:45;;;;;;;25.48;16.20;;;;;;;;;;4956602;28;20662;-71
2023/01/04 01:31:15;;;;;;;26.80;15.90;;;;;;;;;;4958597;28;20047;-71
2023/01/04 01:33:43;;;;;;;32.20;15.43;;;;;;;;;;4957188;28;20644;-70
2023/01/04 01:36:10;;;;;;;33.35;15.77;;;;;;;;;;4955833;28;20043;-70
2023/01/04 01:38:37;;;;;;;31.27;15.68;;;;;;;;;;4955054;28;20051;-68
2023/01/04 01:41:04;;;;;;;28.10;15.88;;;;;;;;;;4954809;28;20486;-71
2023/01/04 01:43:54;;;;;;;31.42;16.27;;;;;;;;;;4958254;28;20078;-70
2023/01/04 01:46:33;;;;;;;31.98;15.63;;;;;;;;;;4958625;28;20047;-70
2023/01/04 01:49:22;;;;;;;27.77;15.57;;;;;;;;;;4954989;28;20086;-69
2023/01/04 01:51:49;;;;;;;23.05;15.48;;;;;;;;;;4957584;28;20098;-70
2023/01/04 01:54:31;;;;;;;27.75;15.48;;;;;;;;;;4956793;28;20063;-70
2023/01/04 01:57:00;;;;;;;29.08;16.15;;;;;;;;;;4956468;28;20058;-69
2023/01/04 01:59:28;;;;;;;30.30;14.77;;;;;;;;;;4955741;28;20086;-69
2023/01/04 02:01:54;;;;;;;27.13;14.68;;;;;;;;;;4949812;28;21196;-69
2023/01/04 02:04:20;;;;;;;29.38;15.13;;;;;;;;;;4958148;28;20047;-69
2023/01/04 02:06:50;;;;;;;35.25;14.55;;;;;;;;;;4955274;28;20157;-69
2023/01/04 02:09:18;;;;;;;30.10;15.65;;;;;;;;;;4961742;28;20527;-71
2023/01/04 02:11:44;;;;;;;26.13;14.32;;;;;;;;;;4964560;28;20039;-70
2023/01/04 02:14:26;;;;;;;27.73;14.85;;;;;;;;;;4961317;28;20105;-69
2023/01/04 02:17:13;;;;;;;25.60;14.80;;;;;;;;;;4958599;28;20071;-70
2023/01/04 02:20:12;;;;;;;29.35;14.65;;;;;;;;;;4965746;28;20058;-69
2023/01/04 02:23:12;;;;;;;23.90;13.57;;;;;;;;;;4958162;28;20066;-69
2023/01/04 02:26:00;;;;;;;26.83;14.05;;;;;;;;;;4956930;28;20153;-70
2023/01/04 02:28:58;;;;;;;23.95;14.02;;;;;;;;;;4956053;28;20049;-70
2023/01/04 02:31:44;;;;;;;26.50;13.88;;;;;;;;;;4959193;28;20489;-69
2023/01/04 02:35:02;;;;;;;33.55;14.70;;;;;;;;;;4962078;28;20051;-70
2023/01/04 02:37:44;;;;;;;26.27;14.73;;;;;;;;;;4939312;28;20066;-69
2023/01/04 02:40:20;;;;;;;24.77;13.68;;;;;;;;;;4960324;28;20078;-70
2023/01/04 02:46:29;;;;;;;32.30;14.40;;;;;;;;;;4954952;28;20090;-70
2023/01/04 02:51:44;;;;;;;25.98;14.88;;;;;;;;;;4960251;28;20499;-69
2023/01/04 02:54:17;;;;;;;21.65;14.35;;;;;;;;;;4954083;28;20527;-69
2023/01/04 02:56:43;;;;;;;29.90;15.05;;;;;;;;;;4948571;28;20101;-70
2023/01/04 02:59:43;;;;;;;21.90;15.00;;;;;;;;;;4952347;28;20146;-70
2023/01/04 03:08:46;;;;;;;31.70;15.15;;;;;;;;;;4956921;28;20055;-69
2023/01/04 03:14:11;;;;;;;26.55;13.93;;;;;;;;;;4913442;29;20339;-69
2023/01/04 03:16:38;;;;;;;26.27;14.80;;;;;;;;;;4921606;29;20142;-70
2023/01/04 03:19:08;;;;;;;25.48;14.95;;;;;;;;;;4919197;29;20277;-69
2023/01/04 03:21:37;;;;;;;21.55;13.43;;;;;;;;;;4915150;29;20091;-68
2023/01/04 03:35:59;;;;;;;16.65;10.93;;;;;;;;;;4916600;29;20125;-68
2023/01/04 03:50:43;;;;;;;12.73;5.90;;;;;;;;;;4931199;28;20454;-68
2023/01/04 03:53:12;;;;;;;8.25;5.63;;;;;;;;;;4954509;28;20123;-70
2023/01/04 03:55:40;;;;;;;8.65;5.18;;;;;;;;;;4953873;28;20081;-69
2023/01/04 03:58:06;;;;;;;9.52;4.65;;;;;;;;;;4957093;28;20051;-70
2023/01/04 04:00:33;;;;;;;7.85;4.00;;;;;;;;;;4958461;28;20043;-68
2023/01/04 04:03:06;;;;;;;8.55;3.38;;;;;;;;;;4946079;28;20082;-69
2023/01/04 04:08:27;;;;;;;4.40;3.10;;;;;;;;;;4957890;28;20636;-69
2023/01/04 04:11:28;;;;;;;7.15;3.30;;;;;;;;;;4957774;28;20553;-69
2023/01/04 04:13:45;;;;;;;5.35;3.10;;;;;;;;;;4951110;28;20117;-69
2023/01/04 04:16:11;;;;;;;7.30;3.15;;;;;;;;;;4957285;28;20051;-69
2023/01/04 04:18:37;;;;;;;6.57;3.20;;;;;;;;;;4960619;28;20046;-69
2023/01/04 04:21:03;;;;;;;3.60;3.00;;;;;;;;;;4953984;28;20047;-69
2023/01/04 04:23:29;;;;;;;4.70;3.00;;;;;;;;;;4954165;28;20062;-70
2023/01/04 04:25:54;;;;;;;5.72;2.70;;;;;;;;;;4949352;28;20066;-69
2023/01/04 04:28:20;;;;;;;3.65;2.50;;;;;;;;;;4953187;28;20042;-70
2023/01/04 04:30:49;;;;;;;6.32;2.67;;;;;;;;;;4953036;28;20389;-68
2023/01/04 04:33:15;;;;;;;3.20;2.08;;;;;;;;;;4966924;28;20394;-70
2023/01/04 04:35:41;;;;;;;7.90;2.85;;;;;;;;;;4951498;28;20453;-68
2023/01/04 04:38:07;;;;;;;4.13;2.33;;;;;;;;;;4961768;28;20050;-70
2023/01/04 04:43:18;;;;;;;;;;;;;;;;;;4956349;28;20058;-67
2023/01/04 04:45:44;;;;;;;5.43;2.10;;;;;;;;;;4952760;28;20328;-69
2023/01/04 04:48:10;;;;;;;4.68;1.85;;;;;;;;;;4954275;28;20042;-68
2023/01/04 04:50:36;;;;;;;3.75;1.73;;;;;;;;;;4953774;28;20082;-67
2023/01/04 04:53:02;;;;;;;4.07;2.00;;;;;;;;;;4950173;28;20066;-69
2023/01/04 04:55:28;;;;;;;2.67;1.63;;;;;;;;;;4953019;28;20055;-69
2023/01/04 04:57:54;;;;;;;3.60;1.90;;;;;;;;;;4955623;28;20051;-69
2023/01/04 05:00:20;;;;;;;2.72;1.67;;;;;;;;;;4957600;28;20058;-68
2023/01/04 05:02:46;;;;;;;2.83;1.90;;;;;;;;;;4951521;28;20058;-72
2023/01/04 05:05:11;;;;;;;2.28;1.50;;;;;;;;;;4946589;28;20070;-70
2023/01/04 05:07:37;;;;;;;1.52;1.27;;;;;;;;;;4956242;28;20051;-69
2023/01/04 05:10:04;;;;;;;3.22;1.52;;;;;;;;;;4956758;28;20055;-68
2023/01/04 05:15:14;;;;;;;3.78;1.45;;;;;;;;;;4947460;28;20051;-70
2023/01/04 05:17:40;;;;;;;1.25;1.13;;;;;;;;;;4950986;28;20369;-71
2023/01/04 05:20:07;;;;;;;2.35;1.35;;;;;;;;;;4949759;28;20134;-70
2023/01/04 05:22:33;;;;;;;4.03;1.90;;;;;;;;;;4954009;28;20114;-69
2023/01/04 05:24:59;;;;;;;2.45;1.52;;;;;;;;;;4951626;28;20047;-73
2023/01/04 05:27:25;;;;;;;1.90;1.50;;;;;;;;;;4952737;28;20043;-70
2023/01/04 05:32:35;;;;;;;2.75;1.70;;;;;;;;;;4962001;28;20461;-69
2023/01/04 05:35:01;;;;;;;2.03;1.40;;;;;;;;;;4952282;28;20063;-71
2023/01/04 05:37:27;;;;;;;3.05;1.60;;;;;;;;;;4951652;28;20050;-70
2023/01/04 05:39:52;;;;;;;1.85;1.52;;;;;;;;;;4952553;28;20471;-70
2023/01/04 05:42:24;;;;;;;5.20;1.38;;;;;;;;;;4950869;28;20134;-70
2023/01/04 05:44:51;;;;;;;3.13;1.50;;;;;;;;;;4956316;28;20042;-70
2023/01/04 05:47:17;;;;;;;2.33;1.58;;;;;;;;;;4948139;28;20125;-70
2023/01/04 05:49:43;;;;;;;2.67;1.63;;;;;;;;;;4951818;28;20058;-70
2023/01/04 05:52:10;;;;;;;2.90;1.85;;;;;;;;;;4950092;28;21057;-70
2023/01/04 05:54:35;;;;;;;3.28;1.50;;;;;;;;;;4952645;28;20044;-70
2023/01/04 05:57:01;;;;;;;2.40;1.60;;;;;;;;;;4953114;28;20409;-70
2023/01/04 05:59:27;;;;;;;3.10;1.60;;;;;;;;;;4954261;28;20141;-68
2023/01/04 06:01:53;;;;;;;2.83;1.27;;;;;;;;;;4948250;28;20055;-69
2023/01/04 06:04:19;;;;;;;2.80;1.60;;;;;;;;;;4950869;28;20054;-69
2023/01/04 06:06:46;;;;;;;2.25;1.65;;;;;;;;;;4957591;28;20149;-69
2023/01/04 06:09:11;;;;;;;3.15;1.55;;;;;;;;;;4952514;28;20057;-70
2023/01/04 06:11:38;;;;;;;3.75;1.88;;;;;;;;;;4953934;28;20137;-70
2023/01/04 06:14:03;;;;;;;2.95;1.70;;;;;;;;;;4955783;28;20129;-70
2023/01/04 06:16:30;;;;;;;2.63;1.85;;;;;;;;;;4956038;28;20058;-71
2023/01/04 06:18:56;;;;;;;2.00;1.70;;;;;;;;;;4952649;28;20055;-69
2023/01/04 06:21:24;;;;;;;1.90;1.42;;;;;;;;;;4962759;28;20046;-69
2023/01/04 06:23:50;;;;;;;3.63;1.63;;;;;;;;;;4956999;28;20373;-71
2023/01/04 06:26:17;;;;;;;2.95;1.88;;;;;;;;;;4956806;28;21175;-68
2023/01/04 06:28:42;;;;;;;5.60;1.70;;;;;;;;;;4954447;28;20097;-71
2023/01/04 06:31:10;;;;;;;2.97;1.88;;;;;;;;;;4953927;28;20054;-70
2023/01/04 06:33:36;;;;;;;3.15;1.58;;;;;;;;;;4957597;28;20055;-71
2023/01/04 06:36:03;;;;;;;2.53;1.70;;;;;;;;;;4956530;28;20054;-70
2023/01/04 06:38:30;;;;;;;3.05;1.80;;;;;;;;;;4957890;28;20408;-70
2023/01/04 06:40:56;;;;;;;8.65;2.30;;;;;;;;;;4955903;28;20071;-69
2023/01/04 06:43:22;;;;;;;4.18;1.80;;;;;;;;;;4953255;28;20051;-70
2023/01/04 06:45:48;;;;;;;6.07;2.08;;;;;;;;;;4959422;28;20062;-70
2023/01/04 06:48:14;;;;;;;4.28;1.83;;;;;;;;;;4956952;28;20413;-70
2023/01/04 06:50:40;;;;;;;2.88;1.67;;;;;;;;;;4953433;28;20050;-69
2023/01/04 06:53:06;;;;;;;5.00;1.90;;;;;;;;;;4959369;28;20074;-71
2023/01/04 06:55:32;;;;;;;4.20;1.67;;;;;;;;;;4954596;28;20241;-72
2023/01/04 06:57:58;;;;;;;6.05;2.55;;;;;;;;;;4954997;28;20099;-70
2023/01/04 07:00:24;;;;;;;5.35;2.70;;;;;;;;;;4952361;28;20051;-70
2023/01/04 07:02:50;;;;;;;3.22;1.77;;;;;;;;;;4948821;28;20129;-72
2023/01/04 07:05:16;;;;;;;2.10;1.50;;;;;;;;;;4951551;28;20056;-70
2023/01/04 07:07:42;;;;;;;2.15;1.40;;;;;;;;;;4951778;28;20054;-72
2023/01/04 07:10:08;;;;;;;2.72;1.50;;;;;;;;;;4957670;28;20062;-72
2023/01/04 07:12:35;;;;;;;3.80;1.60;;;;;;;;;;4954952;28;20253;-70
2023/01/04 07:15:01;;;;;;;3.72;1.77;;;;;;;;;;4949570;28;20105;-72
2023/01/04 07:17:27;;;;;;;2.35;1.60;;;;;;;;;;4953007;28;20054;-70
2023/01/04 07:19:53;;;;;;;7.00;1.60;;;;;;;;;;4952554;28;20051;-71
2023/01/04 07:22:18;;;;;;;6.82;2.10;;;;;;;;;;4959073;28;20054;-71
2023/01/04 07:24:44;;;;;;;7.05;1.70;;;;;;;;;;4954564;28;20150;-72
2023/01/04 07:27:11;;;;;;;4.60;2.33;;;;;;;;;;4959319;28;20051;-73
2023/01/04 07:29:37;;;;;;;4.57;2.20;;;;;;;;;;4952463;28;20059;-71
2023/01/04 07:32:03;;;;;;;10.15;2.83;;;;;;;;;;4951865;28;20047;-70
2023/01/04 07:34:30;;;;;;;10.40;2.47;;;;;;;;;;4951777;28;20054;-70
2023/01/04 07:36:56;;;;;;;11.10;4.05;;;;;;;;;;4945551;28;20090;-71
2023/01/04 07:39:22;;;;;;;14.55;5.93;;;;;;;;;;4955001;28;20058;-71
2023/01/04 07:41:49;;;;;;;11.73;6.47;;;;;;;;;;4960356;28;20611;-70
2023/01/04 07:44:17;;;;;;;16.95;8.32;;;;;;;;;;4952846;28;20111;-72
2023/01/04 07:46:43;;;;;;;19.25;7.07;;;;;;;;;;4956861;28;20059;-71
2023/01/04 07:49:14;;;;;;;13.57;7.22;;;;;;;;;;4956225;28;20054;-69
2023/01/04 07:51:40;;;;;;;12.38;6.68;;;;;;;;;;4956874;28;20412;-71
2023/01/04 07:54:09;;;;;;;11.73;6.57;;;;;;;;;;4951165;28;20416;-70
2023/01/04 07:56:34;;;;;;;15.38;6.65;;;;;;;;;;4961195;28;20452;-69
2023/01/04 07:59:00;;;;;;;18.67;6.63;;;;;;;;;;4948714;28;20512;-70
2023/01/04 08:01:26;;;;;;;10.20;5.43;;;;;;;;;;4954557;28;20047;-70
2023/01/04 08:03:53;;;;;;;14.75;6.00;;;;;;;;;;4954499;28;20054;-71
2023/01/04 08:06:20;;;;;;;14.65;6.00;;;;;;;;;;4947239;28;20086;-72
2023/01/04 08:08:46;;;;;;;12.75;5.50;;;;;;;;;;4952269;28;20073;-72
2023/01/04 08:11:15;;;;;;;12.13;5.93;;;;;;;;;;4952497;28;20042;-71
2023/01/04 08:13:42;;;;;;;10.40;5.80;;;;;;;;;;4955977;28;20528;-69
2023/01/04 08:16:18;;;;;;;15.05;5.38;;;;;;;;;;4948056;28;20055;-72
2023/01/04 08:18:44;;;;;;;13.68;5.70;;;;;;;;;;4951668;28;20051;-70
2023/01/04 08:21:09;;;;;;;13.57;5.78;;;;;;;;;;4952767;28;20047;-72
2023/01/04 08:23:36;;;;;;;14.38;6.35;;;;;;;;;;4949262;28;20497;-69
2023/01/04 08:26:07;;;;;;;17.67;5.28;;;;;;;;;;4955094;28;20054;-70
2023/01/04 08:28:35;;;;;;;23.70;5.65;;;;;;;;;;4949955;28;20512;-71
2023/01/04 08:31:06;;;;;;;18.88;5.45;;;;;;;;;;4948286;28;20046;-70
2023/01/04 08:33:34;;;;;;;12.55;5.68;;;;;;;;;;4947158;28;20135;-71
2023/01/04 08:36:11;;;;;;;15.23;5.70;;;;;;;;;;4950093;28;20054;-70
2023/01/04 08:38:37;;;;;;;21.48;8.13;;;;;;;;;;4948191;28;20054;-72
2023/01/04 08:41:05;;;;;;;15.15;5.60;;;;;;;;;;4964332;28;20050;-70
2023/01/04 08:43:31;;;;;;;11.88;5.32;;;;;;;;;;4958601;28;20599;-71
2023/01/04 08:45:56;;;;;;;12.30;5.13;;;;;;;;;;4949098;28;20540;-71
2023/01/04 08:48:23;;;;;;;14.63;5.45;;;;;;;;;;4953901;28;20531;-73
2023/01/04 08:50:48;;;;;;;10.73;4.35;;;;;;;;;;4953356;28;20055;-71
2023/01/04 08:53:14;;;;;;;9.18;3.90;;;;;;;;;;4954700;28;20058;-71
2023/01/04 08:55:48;;;;;;;6.90;3.60;;;;;;;;;;4955622;28;20421;-69
2023/01/04 08:58:14;;;;;;;9.27;3.83;;;;;;;;;;4953245;28;20386;-70
2023/01/04 09:00:40;;;;;;;6.95;3.15;;;;;;;;;;4955349;28;20336;-71
2023/01/04 09:03:06;;;;;;;4.93;2.80;;;;;;;;;;4953439;28;20149;-71
2023/01/04 09:05:32;;;;;;;4.47;2.90;;;;;;;;;;4958226;28;20185;-73
2023/01/04 09:07:59;;;;;;;3.55;2.47;;;;;;;;;;4955086;28;20346;-69
2023/01/04 09:10:25;;;;;;;7.22;2.80;;;;;;;;;;4954529;28;20078;-69
2023/01/04 09:12:51;;;;;;;6.68;2.83;;;;;;;;;;4951632;28;20062;-72
2023/01/04 09:15:18;;;;;;;10.13;2.72;;;;;;;;;;4950725;28;20046;-71
2023/01/04 09:17:44;;;;;;;8.18;2.47;;;;;;;;;;4953288;28;20501;-69
2023/01/04 09:20:10;;;;;;;6.63;2.10;;;;;;;;;;4951009;28;20047;-71
2023/01/04 09:22:37;;;;;;;4.20;2.50;;;;;;;;;;4948562;28;20062;-72
2023/01/04 09:25:03;;;;;;;7.82;2.60;;;;;;;;;;4956352;28;20093;-71
2023/01/04 09:27:31;;;;;;;8.43;2.53;;;;;;;;;;4955700;28;20487;-71
2023/01/04 09:29:57;;;;;;;4.28;2.60;;;;;;;;;;4948385;28;20069;-73
2023/01/04 09:32:23;;;;;;;4.88;2.75;;;;;;;;;;4955966;28;20669;-71
2023/01/04 09:34:49;;;;;;;12.52;2.38;;;;;;;;;;4952644;28;20091;-71
2023/01/04 09:37:15;;;;;;;11.48;2.42;;;;;;;;;;4954243;28;20070;-73
2023/01/04 09:39:40;;;;;;;4.35;2.17;;;;;;;;;;4951174;28;20485;-69
2023/01/04 09:42:28;;;;;;;5.00;2.33;;;;;;;;;;4955926;28;20460;-69
2023/01/04 09:45:01;;;;;;;2.90;2.15;;;;;;;;;;4953499;28;20082;-71
2023/01/04 09:47:32;;;;;;;2.97;2.25;;;;;;;;;;4953454;28;20554;-74
2023/01/04 09:50:23;;;;;;;4.80;2.67;;;;;;;;;;4952430;28;20062;-70
2023/01/04 09:52:54;;;;;;;4.13;2.22;;;;;;;;;;4950815;28;20062;-72
2023/01/04 09:55:29;;;;;;;5.18;2.40;;;;;;;;;;4954996;28;20121;-73
2023/01/04 09:58:04;;;;;;;5.93;2.72;;;;;;;;;;4950906;28;20055;-74
2023/01/04 10:00:35;;;;;;;5.07;2.58;;;;;;;;;;4952283;28;20170;-71
2023/01/04 10:03:13;;;;;;;13.23;2.67;;;;;;;;;;4960117;28;20063;-71
2023/01/04 10:05:41;;;;;;;7.22;2.65;;;;;;;;;;4959304;28;20058;-72
2023/01/04 10:08:19;;;;;;;5.53;2.30;;;;;;;;;;4955763;28;20450;-74
2023/01/04 10:10:56;;;;;;;5.80;2.80;;;;;;;;;;4958777;28;20053;-71
2023/01/04 10:13:50;;;;;;;5.45;2.83;;;;;;;;;;4950262;28;20073;-73
2023/01/04 10:16:19;;;;;;;7.65;2.60;;;;;;;;;;4957071;28;20054;-71
2023/01/04 10:19:20;;;;;;;4.97;2.30;;;;;;;;;;4961831;28;20055;-69
2023/01/04 10:22:00;;;;;;;8.98;3.05;;;;;;;;;;4951988;28;20039;-69
2023/01/04 10:24:57;;;;;;;4.95;2.22;;;;;;;;;;4954846;28;20134;-71
2023/01/04 10:27:47;;;;;;;10.50;2.40;;;;;;;;;;4950833;28;20182;-70
2023/01/04 10:31:12;;;;;;;4.32;2.20;;;;;;;;;;4963410;28;20457;-70
2023/01/04 10:33:46;;;;;;;9.02;2.17;;;;;;;;;;4877525;29;20068;-71
2023/01/04 10:36:27;;;;;;;7.68;2.08;;;;;;;;;;4886459;29;20106;-70
2023/01/04 10:39:09;;;;;;;10.10;2.80;;;;;;;;;;4884422;29;20068;-72
2023/01/04 10:41:44;;;;;;;14.98;3.10;;;;;;;;;;4873436;29;20472;-71
2023/01/04 10:44:32;;;;;;;4.35;2.55;;;;;;;;;;4868909;29;20104;-74
2023/01/04 10:47:16;;;;;;;7.40;2.65;;;;;;;;;;4882141;29;20526;-71
2023/01/04 10:49:55;;;;;;;5.88;2.40;;;;;;;;;;4884430;29;20178;-74
2023/01/04 10:52:42;;;;;;;6.30;2.65;;;;;;;;;;4880228;29;20538;-72
2023/01/04 10:55:16;;;;;;;7.07;2.75;;;;;;;;;;4884184;29;20609;-70
2023/01/04 10:57:55;;;;;;;6.20;3.03;;;;;;;;;;4882073;29;20056;-70
2023/01/04 11:00:29;;;;;;;7.55;3.00;;;;;;;;;;4884254;29;20049;-71
2023/01/04 11:03:24;;;;;;;5.78;2.63;;;;;;;;;;4878883;29;20678;-70
2023/01/04 11:05:53;;;;;;;;;;;;;;;;;;4874468;29;20063;-69
2023/01/04 11:08:29;;;;;;;5.82;2.80;;;;;;;;;;4949368;28;19930;-72
2023/01/04 11:11:12;;;;;;;4.25;2.95;;;;;;;;;;4952934;28;20074;-70
2023/01/04 11:13:39;;;;;;;11.15;2.92;;;;;;;;;;4947236;28;20067;-72
2023/01/04 11:16:06;;;;;;;10.88;3.22;;;;;;;;;;4960230;28;20047;-72
2023/01/04 11:18:36;;;;;;;11.02;3.55;;;;;;;;;;4971488;28;20436;-73
2023/01/04 11:21:07;;;;;;;7.47;3.35;;;;;;;;;;4955836;28;20409;-71
2023/01/04 11:23:33;;;;;;;8.63;3.53;;;;;;;;;;4956883;28;20054;-72
2023/01/04 11:26:06;;;;;;;6.93;3.38;;;;;;;;;;4952950;28;20524;-72
2023/01/04 11:28:50;;;;;;;5.45;3.10;;;;;;;;;;4950444;28;20055;-71
2023/01/04 11:31:27;;;;;;;8.75;3.20;;;;;;;;;;4952495;28;20059;-70
2023/01/04 11:33:53;;;;;;;11.70;3.67;;;;;;;;;;4956912;28;20464;-72
2023/01/04 11:36:44;;;;;;;17.35;3.45;;;;;;;;;;4956686;28;20057;-72
2023/01/04 11:39:24;;;;;;;13.48;5.85;;;;;;;;;;4959685;28;20082;-72
2023/01/04 11:42:04;;;;;;;9.95;3.88;;;;;;;;;;4960227;28;20053;-72
2023/01/04 11:44:33;;;;;;;5.15;3.67;;;;;;;;;;4951881;28;20106;-72
2023/01/04 11:47:15;;;;;;;8.82;3.72;;;;;;;;;;4958291;28;20454;-73
2023/01/04 11:49:41;;;;;;;5.53;3.53;;;;;;;;;;4952776;28;20059;-71
2023/01/04 11:52:30;;;;;;;6.53;3.63;;;;;;;;;;4956349;28;20102;-70
2023/01/04 11:55:14;;;;;;;8.13;3.75;;;;;;;;;;4957668;28;20458;-70
2023/01/04 11:57:39;;;;;;;10.17;4.30;;;;;;;;;;4962004;28;20038;-71
2023/01/04 12:00:24;;;;;;;11.63;4.05;;;;;;;;;;4950860;28;20051;-69
2023/01/04 12:02:50;;;;;;;6.30;4.23;;;;;;;;;;4959720;28;20141;-74
2023/01/04 12:05:21;;;;;;;10.27;4.10;;;;;;;;;;4958205;28;20047;-71
2023/01/04 12:07:47;;;;;;;7.53;3.63;;;;;;;;;;4954375;28;20042;-71
2023/01/04 12:10:25;;;;;;;4.85;3.40;;;;;;;;;;4951212;28;20058;-68
2023/01/04 12:12:53;;;;;;;7.50;3.35;;;;;;;;;;4963369;28;20053;-74
2023/01/04 12:15:52;;;;;;;6.00;3.40;;;;;;;;;;4959976;28;20330;-71
2023/01/04 12:18:24;;;;;;;15.43;3.70;;;;;;;;;;4957629;28;20058;-72
2023/01/04 12:20:51;;;;;;;6.63;4.13;;;;;;;;;;4954989;28;20354;-71
2023/01/04 12:23:17;;;;;;;8.95;3.60;;;;;;;;;;4953610;28;20055;-71
2023/01/04 12:25:47;;;;;;;7.20;3.88;;;;;;;;;;4955810;28;20519;-70
2023/01/04 12:28:30;;;;;;;7.75;3.58;;;;;;;;;;4956729;28;20050;-72
2023/01/04 12:31:18;;;;;;;6.95;3.30;;;;;;;;;;4950892;28;20065;-71
2023/01/04 12:33:56;;;;;;;7.28;3.10;;;;;;;;;;4953831;28;20102;-72
2023/01/04 12:36:37;;;;;;;11.90;3.35;;;;;;;;;;4954503;28;20117;-71
2023/01/04 12:39:15;;;;;;;5.35;3.42;;;;;;;;;;4954718;28;20163;-71
2023/01/04 12:41:59;;;;;;;8.35;4.13;;;;;;;;;;4958188;28;20456;-71
2023/01/04 12:44:42;;;;;;;7.68;3.75;;;;;;;;;;4947264;28;20050;-72
2023/01/04 12:50:16;;;;;;;7.60;3.22;;;;;;;;;;4953819;28;20631;-71
2023/01/04 12:52:47;;;;;;;6.93;3.58;;;;;;;;;;4957237;28;20050;-71
2023/01/04 12:55:31;;;;;;;9.13;3.10;;;;;;;;;;4956286;28;20599;-72
2023/01/04 12:58:02;;;;;;;10.55;3.65;;;;;;;;;;4957532;28;20059;-71
2023/01/04 13:00:49;;;;;;;5.63;3.35;;;;;;;;;;4952122;28;20053;-72
2023/01/04 13:03:18;;;;;;;12.35;3.25;;;;;;;;;;4952115;28;20090;-72
2023/01/04 13:05:58;;;;;;;6.82;3.42;;;;;;;;;;4956220;28;20078;-71
2023/01/04 13:08:24;;;;;;;7.97;3.13;;;;;;;;;;4951727;28;20059;-73
2023/01/04 13:10:54;;;;;;;6.38;3.17;;;;;;;;;;4955273;28;20142;-71
2023/01/04 13:13:35;;;;;;;8.80;3.42;;;;;;;;;;4954921;28;20042;-71
2023/01/04 13:16:26;;;;;;;6.90;3.17;;;;;;;;;;4957473;28;20512;-72
2023/01/04 13:18:58;;;;;;;7.13;3.20;;;;;;;;;;4957224;28;20051;-71
2023/01/04 13:21:41;;;;;;;4.78;3.15;;;;;;;;;;4955925;28;20102;-71
2023/01/04 13:24:13;;;;;;;6.93;3.33;;;;;;;;;;4953898;28;20063;-72
2023/01/04 13:26:41;;;;;;;8.20;3.75;;;;;;;;;;4960080;28;20288;-69
2023/01/04 13:29:18;;;;;;;11.25;3.63;;;;;;;;;;4958196;28;20047;-74
2023/01/04 13:31:56;;;;;;;7.05;3.90;;;;;;;;;;4953394;28;20150;-72
2023/01/04 13:34:24;;;;;;;9.05;4.40;;;;;;;;;;4955576;28;20055;-72
2023/01/04 13:37:18;;;;;;;10.23;4.43;;;;;;;;;;4966768;28;20043;-72
2023/01/04 13:39:50;;;;;;;6.25;4.00;;;;;;;;;;4961642;28;20042;-71
2023/01/04 13:42:26;;;;;;;7.63;4.13;;;;;;;;;;4955595;28;20686;-73
2023/01/04 13:45:01;;;;;;;7.55;4.47;;;;;;;;;;4948371;28;20081;-72
2023/01/04 13:47:29;;;;;;;12.90;4.75;;;;;;;;;;4950061;28;20057;-74
2023/01/04 13:49:55;;;;;;;12.80;4.78;;;;;;;;;;4958091;28;20047;-74
2023/01/04 13:52:23;;;;;;;7.68;4.70;;;;;;;;;;4956034;28;20097;-71
2023/01/04 13:54:49;;;;;;;9.32;4.60;;;;;;;;;;4952686;28;20117;-73
2023/01/04 13:57:23;;;;;;;6.25;4.15;;;;;;;;;;4958194;28;20340;-74
2023/01/04 13:59:49;;;;;;;8.27;4.97;;;;;;;;;;4952000;28;20051;-73
2023/01/04 14:02:18;;;;;;;7.22;4.22;;;;;;;;;;4954575;28;20134;-73
2023/01/04 14:04:46;;;;;;;7.80;4.38;;;;;;;;;;4953484;28;20199;-70
2023/01/04 14:07:20;;;;;;;7.72;4.28;;;;;;;;;;4956419;28;20083;-72
2023/01/04 14:09:48;;;;;;;;;;;;;;;;;;4958622;28;20038;-72
2023/01/04 14:12:21;;;;;;;6.72;4.43;;;;;;;;;;4951693;28;19938;-73
2023/01/04 14:15:13;;;;;;;7.53;4.07;;;;;;;;;;4950140;28;20146;-71
2023/01/04 14:17:53;;;;;;;7.45;4.15;;;;;;;;;;4966393;28;20050;-72
2023/01/04 14:20:19;;;;;;;5.88;4.07;;;;;;;;;;4957324;28;20051;-73
2023/01/04 14:22:44;;;;;;;7.40;4.50;;;;;;;;;;4954369;28;20050;-72
2023/01/04 14:25:39;;;;;;;12.40;4.72;;;;;;;;;;4957765;28;20358;-75
2023/01/04 14:28:17;;;;;;;;;;;;;;;;;;4953514;28;20150;-71
2023/01/04 14:30:45;;;;;;;8.93;5.03;;;;;;;;;;4958081;28;19963;-72
2023/01/04 14:33:26;;;;;;;10.73;4.40;;;;;;;;;;4952000;28;20040;-74
2023/01/04 14:36:08;;;;;;;11.68;5.47;;;;;;;;;;4961697;28;20089;-75
2023/01/04 14:38:39;;;;;;;6.57;4.00;;;;;;;;;;4958453;28;20070;-72
2023/01/04 14:41:16;;;;;;;8.98;4.30;;;;;;;;;;4955209;28;20516;-74
2023/01/04 14:43:45;;;;;;;10.00;4.57;;;;;;;;;;4955894;28;20109;-71
2023/01/04 14:46:11;;;;;;;9.00;4.25;;;;;;;;;;4958622;28;20500;-70
2023/01/04 14:48:37;;;;;;;11.55;6.32;;;;;;;;;;4959765;28;20066;-69
2023/01/04 14:51:05;;;;;;;9.45;5.53;;;;;;;;;;4963135;28;20067;-71
2023/01/04 14:53:31;;;;;;;7.35;5.40;;;;;;;;;;4957743;28;20058;-73
2023/01/04 14:55:56;;;;;;;11.65;5.00;;;;;;;;;;4955888;28;20050;-73
2023/01/04 14:58:22;;;;;;;10.68;5.53;;;;;;;;;;4958377;28;20055;-71
2023/01/04 15:00:48;;;;;;;9.25;5.32;;;;;;;;;;4960917;28;21159;-74
2023/01/04 15:03:15;;;;;;;12.05;7.10;;;;;;;;;;4956892;28;20258;-70
2023/01/04 15:05:43;;;;;;;8.68;5.47;;;;;;;;;;4959761;28;20042;-72
2023/01/04 15:08:10;;;;;;;10.65;5.97;;;;;;;;;;4960018;28;20047;-72
2023/01/04 15:10:36;;;;;;;10.02;5.70;;;;;;;;;;4962666;28;20507;-71
2023/01/04 15:13:03;;;;;;;8.15;5.75;;;;;;;;;;4962823;28;20449;-71
2023/01/04 15:15:32;;;;;;;13.85;5.85;;;;;;;;;;4964090;28;20046;-69
2023/01/04 15:17:58;;;;;;;13.35;5.75;;;;;;;;;;4962168;28;20046;-73
2023/01/04 15:20:24;;;;;;;10.80;5.95;;;;;;;;;;4957396;28;20047;-70
2023/01/04 15:22:50;;;;;;;7.63;5.22;;;;;;;;;;4950165;28;20532;-70
2023/01/04 15:25:16;;;;;;;11.23;6.13;;;;;;;;;;4962457;28;20047;-71
2023/01/04 15:27:43;;;;;;;10.75;5.82;;;;;;;;;;4948711;28;20059;-72
2023/01/04 15:30:10;;;;;;;11.45;6.60;;;;;;;;;;4959319;28;20580;-73
2023/01/04 15:32:36;;;;;;;11.43;6.05;;;;;;;;;;4957149;28;20047;-72
2023/01/04 15:35:03;;;;;;;8.95;6.25;;;;;;;;;;4959278;28;20063;-72
2023/01/04 15:37:29;;;;;;;10.90;6.22;;;;;;;;;;4953789;28;20047;-73
2023/01/04 15:39:55;;;;;;;13.43;7.22;;;;;;;;;;4961235;28;20048;-70
2023/01/04 15:45:06;;;;;;;;;;;;;;;;;;4957015;28;20085;-70
2023/01/04 15:47:32;;;;;;;10.82;6.18;;;;;;;;;;4963086;28;19926;-73
2023/01/04 15:49:59;;;;;;;10.57;6.25;;;;;;;;;;4962259;28;20730;-69
2023/01/04 15:52:25;;;;;;;9.60;6.60;;;;;;;;;;4955584;28;20051;-70
2023/01/04 15:54:50;;;;;;;10.23;6.72;;;;;;;;;;4956143;28;20552;-72